This is the latest recevied weather packets stored in our database for station/object KC3SOZ. If no packets are shown the sender has not sent any weather packets the latest 10 day(s).
| Time | Temp. | Humidity | Pressure | Rain* | Wind** | Luminosity | Snow |
|---|---|---|---|---|---|---|---|
| 1778006963 | 25.56° C | 45% | 1008.6 hPa | 0 mm | - | 823 W/m² | - |
| 1778006660 | 25.56° C | 44% | 1008.6 hPa | 0 mm | - | 872 W/m² | - |
| 1778006357 | 26.67° C | 40% | 1008.6 hPa | 0 mm | - | 824 W/m² | - |
| 1778006053 | 25.56° C | 44% | 1008.9 hPa | 0 mm | - | 840 W/m² | - |
| 1778005750 | 26.11° C | 42% | 1008.9 hPa | 0 mm | - | 874 W/m² | - |
| 1778005447 | 25° C | 43% | 1009.1 hPa | 0 mm | - | 536 W/m² | - |
| 1778005143 | 25.56° C | 42% | 1009 hPa | 0 mm | - | 306 W/m² | - |
| 1778004841 | 25.56° C | 41% | 1008.7 hPa | 0 mm | - | 369 W/m² | - |
| 1778004537 | 26.11° C | 42% | 1009 hPa | 0 mm | - | 495 W/m² | - |
| 1778004234 | 26.11° C | 42% | 1009 hPa | 0 mm | - | 992 W/m² | - |
| 1778003930 | 26.11° C | 42% | 1009.1 hPa | 0 mm | - | 379 W/m² | - |
| 1778003627 | 25.56° C | 43% | 1009.2 hPa | 0 mm | - | 782 W/m² | - |
| 1778003323 | 26.11° C | 42% | 1009.3 hPa | 0 mm | - | 702 W/m² | - |
| 1778003021 | 25.56° C | 41% | 1009.1 hPa | 0 mm | - | 787 W/m² | - |
| 1778002717 | 25° C | 43% | 1009.3 hPa | 0 mm | - | 901 W/m² | - |
| 1778002413 | 25.56° C | 45% | 1009.3 hPa | 0 mm | - | 176 W/m² | - |
| 1778002111 | 25.56° C | 45% | 1009.1 hPa | 0 mm | - | 200 W/m² | - |
| 1778001808 | 25.56° C | 48% | 1009.4 hPa | 0 mm | - | 853 W/m² | - |
| 1778001508 | 25.56° C | 48% | 1009.2 hPa | 0 mm | - | 886 W/m² | - |
| 1778001205 | 25.56° C | 47% | 1009.3 hPa | 0 mm | - | 810 W/m² | - |
| 1778000901 | 25° C | 46% | 1009.4 hPa | 0 mm | - | 836 W/m² | - |
| 1778000598 | 25.56° C | 47% | 1009.7 hPa | 0 mm | - | 841 W/m² | - |
| 1778000294 | 25.56° C | 50% | 1009.7 hPa | 0 mm | - | 899 W/m² | - |
| 1777999989 | 25° C | 49% | 1009.7 hPa | 0 mm | - | 667 W/m² | - |
| 1777999685 | 25° C | 49% | 1009.8 hPa | 0 mm | - | 902 W/m² | - |
* Rain latest hour (hover to see other rain measurements)
** Current wind speed in m/s (hover to see current wind gust speed)